Diomede, Alaska
Current Conditions -  °F | °C
As of 7:58 PM on Saturday 22 Nov 2014 (Local Time) from PATE Reporting Station
Clear Clear  
Wind Chill: -6°   Ceiling: Unl
Heat Index:   Visibility: 10mi
Dew Point:   Wind: 12mph
Humidity: 77%   Direction: 80°E
Pressure: 29.53"   Gusts: NA
Location:  65.1617°N, 164.975°W
Report Text: PATE 230458Z AUTO 08010KT 10SM CLR M13/M16 A2953 RMK AO2 SLP014 T11281161 FZRANO
Loading
Personal Weather Stations






























Interactive Weather Map New forecast layout! Learn more

10-Day Weather Forecast

Advertisements
Track Severe Weather on mobile